Time;durP1;ratioP1;P1;durP2;ratioP2;P2;SDS_P1;SDS_P2;PMS_P1;PMS_P2;Temp;Humidity;BMP_temperature;BMP_pressure;BME280_temperature;BME280_humidity;BME280_pressure;Samples;Min_cycle;Max_cycle;Signal;HPM_P1;HPM_P2
2020/12/17 00:00:28;;;;;;;17.37;15.90;;;;;;;7.26;88.03;100557.81;5052662;28;20179;-73
2020/12/17 00:02:53;;;;;;;18.10;16.60;;;;;;;7.12;87.72;100554.94;5053018;28;20534;-73
2020/12/17 00:05:20;;;;;;;17.10;15.77;;;;;;;7.22;87.40;100555.91;5052440;28;20182;-72
2020/12/17 00:07:51;;;;;;;17.97;16.47;;;;;;;7.09;88.04;100557.41;5052695;28;20171;-72
2020/12/17 00:10:17;;;;;;;18.73;17.03;;;;;;;7.19;87.48;100551.06;5052521;28;20171;-73
2020/12/17 00:12:45;;;;;;;18.83;17.27;;;;;;;7.15;87.53;100551.63;5052490;28;20256;-72
2020/12/17 00:15:12;;;;;;;19.37;17.83;;;;;;;7.07;87.91;100552.25;5053065;28;20257;-72
2020/12/17 00:17:42;;;;;;;18.87;17.13;;;;;;;7.11;87.44;100552.50;5052262;28;20186;-74
2020/12/17 00:20:08;;;;;;;19.47;17.47;;;;;;;7.09;87.84;100549.28;5052730;28;20564;-73
2020/12/17 00:22:38;;;;;;;20.87;19.10;;;;;;;6.96;87.87;100545.31;5052396;28;20171;-72
2020/12/17 00:25:06;;;;;;;20.47;18.47;;;;;;;6.97;88.11;100551.53;5052360;28;20262;-73
2020/12/17 00:27:31;;;;;;;20.30;18.40;;;;;;;6.97;88.02;100544.22;5052430;28;20570;-72
2020/12/17 00:29:57;;;;;;;20.27;18.50;;;;;;;6.93;88.51;100536.88;5052302;28;20176;-73
2020/12/17 00:32:23;;;;;;;18.53;16.83;;;;;;;6.95;88.01;100545.59;5051995;28;20277;-72
2020/12/17 00:34:48;;;;;;;20.07;18.27;;;;;;;7.00;87.88;100545.53;5052204;28;20179;-72
2020/12/17 00:37:14;;;;;;;22.23;19.93;;;;;;;6.85;88.26;100541.03;5051934;28;20183;-73
2020/12/17 00:39:39;;;;;;;21.40;19.40;;;;;;;6.73;88.20;100533.25;5051952;28;20175;-73
2020/12/17 00:42:04;;;;;;;22.03;20.00;;;;;;;6.63;88.71;100535.22;5050532;28;20653;-73
2020/12/17 00:44:31;;;;;;;24.13;21.77;;;;;;;6.65;88.97;100541.19;5051888;28;20623;-72
2020/12/17 00:46:56;;;;;;;21.93;19.83;;;;;;;6.64;89.21;100528.69;5051209;28;20647;-73
2020/12/17 00:49:22;;;;;;;25.70;22.37;;;;;;;6.52;89.03;100529.09;5051859;28;20178;-72
2020/12/17 00:51:47;;;;;;;24.37;21.93;;;;;;;6.46;89.32;100525.56;5051590;28;20178;-72
2020/12/17 00:54:13;;;;;;;24.63;21.83;;;;;;;6.45;89.73;100537.53;5051511;28;20295;-73
2020/12/17 00:56:45;;;;;;;23.60;21.23;;;;;;;6.52;89.61;100527.19;5051575;28;20202;-73
2020/12/17 00:59:10;;;;;;;23.93;21.60;;;;;;;6.52;89.51;100531.81;5051624;28;20250;-73
2020/12/17 01:01:35;;;;;;;23.87;21.43;;;;;;;6.51;89.17;100525.56;5051370;28;20678;-72
2020/12/17 01:04:01;;;;;;;23.10;20.90;;;;;;;6.48;89.52;100520.66;5051591;28;20171;-73
2020/12/17 01:06:27;;;;;;;22.63;20.37;;;;;;;6.58;89.18;100522.50;5051394;28;20171;-73
2020/12/17 01:08:52;;;;;;;23.67;21.40;;;;;;;6.56;88.77;100522.81;5051577;28;20678;-73
2020/12/17 01:11:17;;;;;;;24.83;22.30;;;;;;;6.57;88.87;100527.13;5051787;28;20641;-73
2020/12/17 01:13:43;;;;;;;23.90;21.33;;;;;;;6.65;89.03;100528.41;5051395;28;20211;-73
2020/12/17 01:16:09;;;;;;;24.47;22.07;;;;;;;6.59;88.53;100534.19;5049767;28;20228;-74
2020/12/17 01:18:34;;;;;;;23.20;21.27;;;;;;;6.55;89.14;100540.19;5051184;28;20253;-73
2020/12/17 01:21:03;;;;;;;23.50;21.43;;;;;;;6.53;88.83;100539.66;5051296;28;20221;-72
2020/12/17 01:23:29;;;;;;;23.50;21.03;;;;;;;6.66;88.53;100543.63;5051224;28;20774;-72
2020/12/17 01:25:54;;;;;;;23.13;20.93;;;;;;;6.77;88.35;100539.72;5051314;28;20178;-73
2020/12/17 01:28:19;;;;;;;22.60;20.40;;;;;;;6.79;88.04;100547.59;5050996;28;20182;-72
2020/12/17 01:30:45;;;;;;;23.87;21.33;;;;;;;6.66;88.38;100545.53;5050906;28;20175;-73
2020/12/17 01:33:10;;;;;;;24.43;21.87;;;;;;;6.54;88.73;100554.03;5050920;28;20276;-72
2020/12/17 01:35:35;;;;;;;24.73;22.23;;;;;;;6.52;89.07;100551.59;5050899;28;20171;-74
2020/12/17 01:38:01;;;;;;;28.90;23.63;;;;;;;6.46;88.97;100552.72;5050896;28;20652;-73
2020/12/17 01:40:26;;;;;;;23.70;21.40;;;;;;;6.52;89.04;100548.91;5050782;28;20698;-72
2020/12/17 01:42:54;;;;;;;23.60;21.17;;;;;;;6.69;88.79;100556.66;5050998;28;20205;-72
2020/12/17 01:45:20;;;;;;;22.93;20.73;;;;;;;6.77;88.05;100549.78;5050426;28;20541;-72
2020/12/17 01:47:47;;;;;;;22.20;20.20;;;;;;;6.86;88.21;100550.81;5050444;28;20318;-73
2020/12/17 01:50:12;;;;;;;21.50;19.43;;;;;;;6.76;87.19;100556.31;5050647;28;20591;-72
2020/12/17 01:52:38;;;;;;;25.70;21.70;;;;;;;6.54;88.39;100559.47;5050977;28;20199;-73
2020/12/17 01:55:04;;;;;;;21.60;19.57;;;;;;;6.60;88.25;100562.94;5050556;28;20257;-72
2020/12/17 01:57:32;;;;;;;21.77;19.77;;;;;;;6.75;88.21;100554.69;5050408;28;20171;-72
2020/12/17 02:00:04;;;;;;;21.67;19.57;;;;;;;6.79;87.82;100561.16;5050619;28;20225;-72
2020/12/17 02:02:31;;;;;;;20.10;18.33;;;;;;;6.85;87.63;100558.16;5050886;28;20179;-74
2020/12/17 02:04:59;;;;;;;21.10;19.30;;;;;;;6.80;87.56;100562.81;5050618;28;20179;-72
2020/12/17 02:07:24;;;;;;;19.07;17.57;;;;;;;6.84;87.47;100550.28;5050544;28;20266;-72
2020/12/17 02:09:50;;;;;;;21.97;19.93;;;;;;;6.75;87.92;100560.13;5050402;28;20258;-72
2020/12/17 02:12:16;;;;;;;22.30;20.20;;;;;;;6.68;88.21;100556.94;5050398;28;20199;-74
2020/12/17 02:14:42;;;;;;;22.53;20.47;;;;;;;6.67;88.27;100561.56;5050731;28;20725;-73
2020/12/17 02:17:07;;;;;;;21.97;19.90;;;;;;;6.80;87.90;100555.47;5050395;28;20643;-73
2020/12/17 02:19:33;;;;;;;22.37;19.50;;;;;;;6.76;88.17;100556.31;5050463;28;20278;-74
2020/12/17 02:21:59;;;;;;;23.57;19.93;;;;;;;6.90;87.34;100557.28;5050384;28;20621;-74
2020/12/17 02:24:24;;;;;;;21.77;19.77;;;;;;;6.82;87.75;100553.28;5050307;28;20184;-73
2020/12/17 02:26:50;;;;;;;19.67;18.03;;;;;;;6.91;87.44;100555.38;5050613;28;20232;-73
2020/12/17 02:29:16;;;;;;;19.83;17.93;;;;;;;6.91;87.15;100552.66;5058771;28;20202;-72
2020/12/17 02:31:41;;;;;;;21.17;19.17;;;;;;;6.74;87.22;100553.88;5054478;28;20209;-72
2020/12/17 02:34:07;;;;;;;20.53;18.77;;;;;;;6.89;87.55;100552.13;5051550;28;20214;-72
2020/12/17 02:36:32;;;;;;;20.27;18.40;;;;;;;6.98;86.96;100545.81;5050706;28;20187;-71
2020/12/17 02:38:58;;;;;;;18.43;16.77;;;;;;;7.05;86.88;100543.56;5050489;28;20261;-72
2020/12/17 02:41:24;;;;;;;18.77;17.00;;;;;;;7.02;86.40;100538.72;5050290;28;20175;-73
2020/12/17 02:43:51;;;;;;;18.73;16.97;;;;;;;6.97;86.27;100532.53;5050483;28;20186;-72
2020/12/17 02:46:17;;;;;;;18.40;16.80;;;;;;;7.07;86.20;100533.22;5050556;28;20237;-72
2020/12/17 02:48:42;;;;;;;18.93;17.33;;;;;;;7.02;85.67;100533.28;5050049;28;20639;-72
2020/12/17 02:51:07;;;;;;;19.17;17.43;;;;;;;7.04;86.19;100528.38;5050330;28;20179;-72
2020/12/17 02:53:33;;;;;;;19.77;17.97;;;;;;;7.01;85.84;100528.13;5050038;28;20199;-72
2020/12/17 02:55:58;;;;;;;18.33;16.53;;;;;;;7.10;85.83;100529.16;5049989;28;20179;-72
2020/12/17 02:58:23;;;;;;;17.73;16.23;;;;;;;7.21;85.51;100518.97;5051787;28;20702;-72
2020/12/17 03:00:49;;;;;;;17.47;15.87;;;;;;;7.09;85.20;100520.19;5053980;28;20175;-72
2020/12/17 03:03:14;;;;;;;18.83;17.33;;;;;;;7.10;85.66;100523.72;5053926;28;20175;-72
2020/12/17 03:05:40;;;;;;;18.10;16.60;;;;;;;7.11;85.37;100520.72;5053845;28;20175;-72
2020/12/17 03:08:05;;;;;;;18.20;16.60;;;;;;;7.09;85.62;100517.47;5053829;28;20203;-72
2020/12/17 03:10:31;;;;;;;18.00;16.50;;;;;;;7.12;85.42;100521.53;5052858;28;20214;-72
2020/12/17 03:12:56;;;;;;;17.87;16.37;;;;;;;7.10;84.98;100518.28;5053270;28;20686;-72
2020/12/17 03:15:21;;;;;;;19.03;17.23;;;;;;;7.24;84.73;100526.56;5053650;28;20216;-72
2020/12/17 03:17:47;;;;;;;18.23;16.63;;;;;;;7.15;84.87;100535.34;5053457;28;20175;-72
2020/12/17 03:20:13;;;;;;;17.87;16.27;;;;;;;7.19;85.29;100541.00;5053576;28;20270;-72
2020/12/17 03:22:39;;;;;;;17.73;16.27;;;;;;;7.18;84.76;100523.09;5053615;28;20179;-72
2020/12/17 03:25:07;;;;;;;16.90;15.37;;;;;;;7.24;84.86;100529.28;5053753;28;20185;-72
2020/12/17 03:27:32;;;;;;;17.33;15.93;;;;;;;7.36;84.11;100522.34;5053146;28;20179;-71
2020/12/17 03:29:59;;;;;;;17.53;15.97;;;;;;;7.24;84.39;100524.66;5053397;28;20561;-72
2020/12/17 03:32:24;;;;;;;17.70;16.10;;;;;;;7.23;84.15;100512.16;5053389;28;20175;-72
2020/12/17 03:34:49;;;;;;;16.33;14.83;;;;;;;7.34;84.28;100519.09;5053256;28;20211;-72
2020/12/17 03:37:15;;;;;;;16.33;15.00;;;;;;;7.25;84.38;100509.97;5053427;28;20176;-72
2020/12/17 03:39:40;;;;;;;17.03;15.57;;;;;;;7.19;84.73;100513.84;5053237;28;20178;-72
2020/12/17 03:42:06;;;;;;;16.83;15.43;;;;;;;7.33;84.63;100497.66;5052991;28;20541;-72
2020/12/17 03:44:31;;;;;;;16.43;15.03;;;;;;;7.27;84.18;100518.66;5053101;28;20182;-72
2020/12/17 03:46:57;;;;;;;17.47;15.97;;;;;;;7.31;84.70;100510.72;5052790;28;20183;-72
2020/12/17 03:49:22;;;;;;;16.23;14.70;;;;;;;7.42;83.72;100513.06;5053075;28;20176;-72
2020/12/17 03:51:48;;;;;;;15.80;14.43;;;;;;;7.40;83.93;100514.44;5053014;28;20258;-72
2020/12/17 03:54:13;;;;;;;15.87;14.40;;;;;;;7.30;84.11;100514.56;5052810;28;20203;-72
2020/12/17 03:56:39;;;;;;;15.37;14.17;;;;;;;7.33;84.03;100530.28;5052701;28;20649;-72
2020/12/17 03:59:04;;;;;;;16.83;15.47;;;;;;;7.31;84.34;100527.84;5052992;28;20189;-72
2020/12/17 04:01:29;;;;;;;18.03;16.33;;;;;;;7.36;83.85;100513.38;5052391;28;20426;-72
2020/12/17 04:03:55;;;;;;;16.50;15.20;;;;;;;7.45;83.48;100519.81;5052884;28;20258;-72
2020/12/17 04:06:20;;;;;;;15.47;14.07;;;;;;;7.48;83.20;100513.81;5052631;28;20563;-72
2020/12/17 04:08:45;;;;;;;15.87;14.47;;;;;;;7.37;83.11;100509.56;5052218;28;20175;-73
2020/12/17 04:11:11;;;;;;;15.23;14.07;;;;;;;7.33;83.04;100514.78;5052918;28;20503;-72
2020/12/17 04:13:37;;;;;;;15.40;14.10;;;;;;;7.31;83.79;100514.25;5052470;28;20583;-72
2020/12/17 04:16:05;;;;;;;16.10;14.83;;;;;;;7.40;83.54;100511.72;5052528;28;20184;-72
2020/12/17 04:18:30;;;;;;;16.27;14.80;;;;;;;7.33;83.38;100508.53;5052380;28;20213;-72
2020/12/17 04:20:56;;;;;;;20.13;18.13;;;;;;;7.33;83.19;100512.06;5052431;28;20218;-72
2020/12/17 04:23:22;;;;;;;18.57;16.83;;;;;;;7.33;83.34;100508.53;5052839;28;20185;-72
2020/12/17 04:25:47;;;;;;;20.20;18.40;;;;;;;7.29;82.94;100496.63;5051950;28;20175;-73
2020/12/17 04:28:13;;;;;;;20.33;18.63;;;;;;;7.29;83.65;100492.00;5052142;28;20183;-71
2020/12/17 04:30:38;;;;;;;16.43;15.13;;;;;;;7.42;83.03;100498.66;5050822;28;20266;-72
2020/12/17 04:33:04;;;;;;;14.60;13.40;;;;;;;7.49;82.53;100504.53;5052221;28;20230;-71
2020/12/17 04:35:29;;;;;;;17.17;15.57;;;;;;;7.33;82.79;100493.03;5052166;28;20179;-72
2020/12/17 04:37:54;;;;;;;15.33;14.00;;;;;;;7.27;83.36;100490.69;5052072;28;20201;-73
2020/12/17 04:40:20;;;;;;;14.73;13.40;;;;;;;7.30;82.76;100492.81;5051844;28;20631;-72
2020/12/17 04:42:49;;;;;;;16.97;15.40;;;;;;;7.12;83.65;100480.78;5051958;28;20274;-72
2020/12/17 04:45:14;;;;;;;15.70;14.20;;;;;;;7.23;83.38;100487.69;5051959;28;20645;-72
2020/12/17 04:47:41;;;;;;;15.90;14.20;;;;;;;7.21;83.23;100491.81;5051690;28;20219;-72
2020/12/17 04:50:11;;;;;;;14.83;13.53;;;;;;;7.14;84.23;100484.00;5050403;28;20167;-72
2020/12/17 04:52:38;;;;;;;15.20;13.90;;;;;;;7.32;83.50;100485.97;5050373;28;20179;-72
2020/12/17 04:55:05;;;;;;;12.37;11.37;;;;;;;7.39;82.79;100497.34;5050434;28;20189;-72
2020/12/17 04:57:31;;;;;;;13.60;12.50;;;;;;;7.47;82.36;100495.88;5051608;28;20175;-72
2020/12/17 04:59:57;;;;;;;14.50;13.20;;;;;;;7.46;82.75;100502.41;5051660;28;20175;-72
2020/12/17 05:02:23;;;;;;;14.03;12.83;;;;;;;7.40;82.51;100500.88;5051598;28;20253;-72
2020/12/17 05:04:49;;;;;;;12.70;11.47;;;;;;;7.43;82.91;100509.25;5051676;28;20773;-72
2020/12/17 05:07:17;;;;;;;14.33;13.20;;;;;;;7.43;82.52;100508.44;5049968;28;20182;-72
2020/12/17 05:09:44;;;;;;;12.87;11.87;;;;;;;7.42;82.70;100506.81;5051498;28;20195;-72
2020/12/17 05:12:10;;;;;;;14.07;12.77;;;;;;;7.38;83.11;100498.44;5051395;28;20175;-72
2020/12/17 05:14:36;;;;;;;13.37;12.23;;;;;;;7.32;82.77;100501.47;5051369;28;20289;-73
2020/12/17 05:17:02;;;;;;;14.83;13.40;;;;;;;7.38;82.80;100505.78;5050121;28;20599;-72
2020/12/17 05:19:27;;;;;;;13.93;12.73;;;;;;;7.46;82.86;100496.97;5051328;28;20185;-72
2020/12/17 05:21:55;;;;;;;14.73;13.53;;;;;;;7.41;83.12;100497.03;5050824;28;20508;-72
2020/12/17 05:24:21;;;;;;;6.57;5.87;;;;;;;7.47;82.95;100491.25;5051233;28;20224;-72
2020/12/17 05:26:50;;;;;;;12.80;11.70;;;;;;;7.53;82.74;100489.28;5051437;28;20233;-71
2020/12/17 05:29:17;;;;;;;14.20;12.80;;;;;;;7.52;82.65;100495.81;5051006;28;20643;-72
2020/12/17 05:31:43;;;;;;;12.40;9.33;;;;;;;7.55;82.06;100489.81;5051081;28;20181;-72
2020/12/17 05:34:08;;;;;;;13.97;12.67;;;;;;;7.50;82.17;100475.44;5050984;28;20207;-72
2020/12/17 05:36:34;;;;;;;14.00;12.80;;;;;;;7.55;82.33;100486.28;5050745;28;20270;-72
2020/12/17 05:39:13;;;;;;;12.37;11.30;;;;;;;7.50;82.27;100481.69;5050926;28;20179;-72
2020/12/17 05:41:42;;;;;;;12.53;11.43;;;;;;;7.53;82.47;100488.50;5050928;28;20175;-71
2020/12/17 05:44:09;;;;;;;12.23;11.13;;;;;;;7.51;82.33;100487.94;5050824;28;20236;-71
2020/12/17 05:46:35;;;;;;;12.53;11.43;;;;;;;7.55;82.21;100492.53;5050694;28;20175;-72
2020/12/17 05:49:10;;;;;;;12.07;11.00;;;;;;;7.55;82.65;100484.38;5050622;28;20567;-72
2020/12/17 05:51:36;;;;;;;12.43;11.27;;;;;;;7.58;81.99;100485.69;5050703;28;20423;-72
2020/12/17 05:54:02;;;;;;;12.73;11.67;;;;;;;7.59;82.20;100481.88;5049280;28;20215;-72
2020/12/17 05:56:29;;;;;;;11.33;10.33;;;;;;;7.60;82.31;100475.34;5050723;28;20181;-71
2020/12/17 05:59:00;;;;;;;6.57;5.90;;;;;;;7.60;82.07;100472.63;5050579;28;20163;-72
2020/12/17 06:01:27;;;;;;;7.07;6.43;;;;;;;7.62;81.87;100479.38;5050635;28;20171;-71
2020/12/17 06:03:52;;;;;;;8.93;7.47;;;;;;;7.62;81.98;100475.84;5050705;28;20176;-72
2020/12/17 06:06:18;;;;;;;5.83;5.37;;;;;;;7.62;81.98;100481.28;5050536;28;20229;-72
2020/12/17 06:08:51;;;;;;;8.87;7.60;;;;;;;7.72;81.95;100473.81;5050417;28;20621;-72
2020/12/17 06:11:17;;;;;;;10.07;9.10;;;;;;;7.77;81.48;100481.09;5050499;28;20167;-72
2020/12/17 06:13:43;;;;;;;13.00;11.77;;;;;;;7.72;81.53;100484.69;5050328;28;20203;-72
2020/12/17 06:16:11;;;;;;;4.13;3.67;;;;;;;7.71;81.77;100476.84;5050214;28;20178;-71
2020/12/17 06:18:54;;;;;;;13.60;12.40;;;;;;;7.68;81.30;100483.66;5050280;28;20180;-71
2020/12/17 06:21:21;;;;;;;6.73;5.50;;;;;;;7.69;81.76;100479.03;5050248;28;20186;-72
2020/12/17 06:23:48;;;;;;;5.33;4.83;;;;;;;7.68;81.94;100480.16;5050430;28;20187;-72
2020/12/17 06:26:14;;;;;;;9.03;8.27;;;;;;;7.65;81.35;100483.41;5050031;28;20207;-72
2020/12/17 06:28:46;;;;;;;11.87;10.87;;;;;;;7.67;81.57;100498.38;5050104;28;20698;-73
2020/12/17 06:31:17;;;;;;;15.93;14.43;;;;;;;7.64;81.66;100498.13;5050431;28;20655;-73
2020/12/17 06:33:44;;;;;;;13.43;12.23;;;;;;;7.67;82.01;100501.09;5054411;28;20202;-73
2020/12/17 06:36:18;;;;;;;12.87;11.67;;;;;;;7.70;81.11;100511.38;5054544;28;20688;-72
2020/12/17 06:38:44;;;;;;;13.27;11.97;;;;;;;7.70;81.65;100507.84;5054311;28;20178;-72
2020/12/17 06:41:17;;;;;;;13.20;12.10;;;;;;;7.70;81.20;100514.09;5054172;28;20559;-72
2020/12/17 06:43:43;;;;;;;13.53;12.43;;;;;;;7.69;81.00;100509.75;5054383;28;20269;-73
2020/12/17 06:46:52;;;;;;;13.73;12.53;;;;;;;7.75;80.91;100507.78;5054241;28;20262;-72
2020/12/17 06:49:23;;;;;;;14.40;13.10;;;;;;;7.70;81.45;100507.84;4992245;28;20247;-72
2020/12/17 06:52:00;;;;;;;13.37;12.17;;;;;;;7.71;81.33;100506.75;5047522;28;20839;-72
2020/12/17 06:54:26;;;;;;;13.93;12.83;;;;;;;7.67;81.69;100508.44;5054045;28;20203;-72
2020/12/17 06:57:18;;;;;;;13.73;12.70;;;;;;;7.71;81.53;100509.47;5054005;28;20175;-72
2020/12/17 06:59:46;;;;;;;14.20;12.90;;;;;;;7.72;80.93;100505.66;5046410;28;20199;-72
2020/12/17 07:02:17;;;;;;;14.90;13.63;;;;;;;7.72;81.15;100495.56;5054292;28;20619;-73
2020/12/17 07:04:48;;;;;;;13.63;12.43;;;;;;;7.71;81.15;100501.31;5054076;28;20710;-72
2020/12/17 07:07:23;;;;;;;14.83;13.53;;;;;;;7.69;81.01;100512.47;5053675;28;20179;-72
2020/12/17 07:09:53;;;;;;;14.47;13.37;;;;;;;7.71;81.36;100510.28;5053749;28;20175;-73
2020/12/17 07:12:34;;;;;;;14.97;13.77;;;;;;;7.73;81.30;100505.34;5053904;28;20205;-73
2020/12/17 07:15:03;;;;;;;13.00;11.97;;;;;;;7.72;81.05;100514.63;5053759;28;20182;-73
2020/12/17 07:17:29;;;;;;;14.80;13.57;;;;;;;7.69;81.58;100517.91;5053527;28;20229;-72
2020/12/17 07:19:54;;;;;;;14.67;13.47;;;;;;;7.75;81.28;100526.81;5053609;28;20175;-72
2020/12/17 07:22:20;;;;;;;13.27;12.03;;;;;;;7.80;80.99;100523.22;5053588;28;20598;-72
2020/12/17 07:24:48;;;;;;;14.30;13.10;;;;;;;7.81;80.32;100516.69;5052146;28;20569;-72
2020/12/17 07:27:15;;;;;;;14.83;13.63;;;;;;;7.68;81.11;100529.09;5053093;28;20653;-72
2020/12/17 07:29:43;;;;;;;13.50;11.87;;;;;;;7.71;81.21;100534.75;5053342;28;20176;-72
2020/12/17 07:32:33;;;;;;;14.67;13.33;;;;;;;7.80;80.58;100540.34;5053240;28;20179;-73
2020/12/17 07:35:00;;;;;;;14.63;13.43;;;;;;;7.71;81.55;100553.78;5053332;28;20203;-74
2020/12/17 07:37:40;;;;;;;11.93;9.90;;;;;;;7.70;80.97;100545.91;5052988;28;20802;-72
2020/12/17 07:40:11;;;;;;;13.90;12.60;;;;;;;7.63;81.60;100543.53;5053217;28;20205;-72
2020/12/17 07:42:37;;;;;;;14.27;13.17;;;;;;;7.69;81.19;100547.03;5053010;28;20167;-72
2020/12/17 07:45:03;;;;;;;14.73;13.47;;;;;;;7.60;81.72;100549.56;5052534;28;20672;-73
2020/12/17 07:47:30;;;;;;;13.53;12.43;;;;;;;7.54;81.84;100549.91;5052810;28;20191;-72
2020/12/17 07:49:55;;;;;;;13.97;12.87;;;;;;;7.58;81.65;100551.75;5052847;28;20179;-72
2020/12/17 07:52:29;;;;;;;14.87;13.67;;;;;;;7.60;81.45;100557.72;5053010;28;20194;-73
2020/12/17 07:54:55;;;;;;;15.57;14.27;;;;;;;7.61;81.25;100564.78;5052954;28;20253;-73
2020/12/17 07:57:20;;;;;;;14.07;13.00;;;;;;;7.69;81.28;100566.88;5052617;28;20515;-73
2020/12/17 07:59:46;;;;;;;12.83;11.80;;;;;;;7.79;80.74;100565.13;5052721;28;20181;-72
2020/12/17 08:02:11;;;;;;;14.93;13.63;;;;;;;7.81;80.79;100569.19;5052504;28;20606;-73
2020/12/17 08:04:36;;;;;;;17.87;16.03;;;;;;;7.75;80.88;100575.78;5052563;28;20237;-74
2020/12/17 08:07:06;;;;;;;14.20;13.00;;;;;;;7.73;81.21;100578.78;5052648;28;20171;-73
2020/12/17 08:09:31;;;;;;;13.47;12.37;;;;;;;7.82;81.33;100578.97;5052802;28;20171;-73
2020/12/17 08:11:57;;;;;;;40.57;23.67;;;;;;;7.77;80.92;100584.44;5052957;28;20186;-75
2020/12/17 08:14:23;;;;;;;28.47;20.53;;;;;;;7.82;81.09;100592.56;5052586;28;20221;-73
2020/12/17 08:16:49;;;;;;;36.17;23.13;;;;;;;7.68;81.00;100589.72;5052339;28;20557;-72
2020/12/17 08:19:14;;;;;;;16.53;14.83;;;;;;;7.79;81.30;100597.75;5051099;28;20171;-72
2020/12/17 08:21:42;;;;;;;14.07;12.77;;;;;;;7.85;81.17;100602.06;5052617;28;20172;-73
2020/12/17 08:24:10;;;;;;;11.73;10.73;;;;;;;7.84;81.18;100601.25;5052589;28;20179;-74
2020/12/17 08:26:36;;;;;;;13.63;12.33;;;;;;;7.91;80.65;100593.53;5051861;28;20318;-72
2020/12/17 08:29:01;;;;;;;13.73;12.63;;;;;;;7.90;80.68;100583.75;5052451;28;20746;-72
2020/12/17 08:31:31;;;;;;;13.57;12.47;;;;;;;7.90;80.38;100591.09;5052570;28;20172;-72
2020/12/17 08:33:59;;;;;;;13.90;12.40;;;;;;;7.89;80.92;100587.56;5057474;28;20270;-72
2020/12/17 08:36:30;;;;;;;9.53;8.57;;;;;;;7.87;80.74;100586.25;5058544;28;20735;-71
2020/12/17 08:39:13;;;;;;;13.17;11.97;;;;;;;7.88;80.42;100587.88;5053458;28;20176;-75
2020/12/17 08:41:46;;;;;;;12.30;11.10;;;;;;;7.90;81.08;100575.59;5052542;28;20258;-75
2020/12/17 08:44:13;;;;;;;11.53;10.63;;;;;;;7.94;80.67;100589.41;5052136;28;20182;-75
2020/12/17 08:46:53;;;;;;;12.53;11.43;;;;;;;7.92;80.83;100583.47;5052180;28;20329;-75
2020/12/17 08:49:22;;;;;;;13.30;12.20;;;;;;;7.95;80.40;100589.13;5052122;28;20198;-75
2020/12/17 08:51:48;;;;;;;14.40;13.30;;;;;;;7.95;80.49;100591.84;5052069;28;20163;-75
2020/12/17 08:54:32;;;;;;;13.37;12.27;;;;;;;7.98;80.20;100587.75;5052192;28;20217;-75
2020/12/17 08:57:06;;;;;;;14.73;13.43;;;;;;;8.00;80.89;100599.16;5050971;28;20179;-75
2020/12/17 08:59:31;;;;;;;14.20;13.00;;;;;;;8.04;80.35;100598.28;5051857;28;20179;-75
2020/12/17 09:01:58;;;;;;;15.53;14.33;;;;;;;8.02;79.61;100611.38;5051885;28;20528;-75
2020/12/17 09:04:24;;;;;;;14.43;13.13;;;;;;;7.87;80.47;100616.97;5051649;28;20184;-75
2020/12/17 09:06:59;;;;;;;14.00;12.83;;;;;;;7.89;80.44;100622.94;5051537;28;20182;-75
2020/12/17 09:09:26;;;;;;;14.63;13.23;;;;;;;7.73;80.94;100622.28;5051449;28;20735;-76
2020/12/17 09:11:53;;;;;;;14.10;12.90;;;;;;;7.80;81.30;100621.13;5051529;28;20179;-74
2020/12/17 09:14:26;;;;;;;14.13;12.90;;;;;;;7.95;80.11;100616.31;5051406;28;20205;-75
2020/12/17 09:16:51;;;;;;;9.13;8.33;;;;;;;7.99;79.88;100625.56;5051362;28;20544;-76
2020/12/17 09:19:17;;;;;;;13.23;12.20;;;;;;;7.99;79.95;100620.09;5051267;28;20197;-75
2020/12/17 09:21:54;;;;;;;14.10;12.87;;;;;;;7.89;80.81;100622.94;5051413;28;20189;-75
2020/12/17 09:24:26;;;;;;;11.57;10.47;;;;;;;7.92;80.64;100629.69;5051243;28;20207;-75
2020/12/17 09:26:52;;;;;;;12.07;11.07;;;;;;;7.88;80.43;100631.38;5049722;28;20175;-76
2020/12/17 09:29:17;;;;;;;13.70;12.57;;;;;;;7.97;79.69;100637.81;5051175;28;20537;-75
2020/12/17 09:31:42;;;;;;;13.33;12.33;;;;;;;7.88;80.53;100625.94;5051118;28;20175;-75
2020/12/17 09:34:13;;;;;;;14.70;13.60;;;;;;;7.85;80.10;100629.25;5051040;28;20275;-73
2020/12/17 09:36:41;;;;;;;13.63;12.50;;;;;;;7.87;81.07;100635.22;5051044;28;20171;-73
2020/12/17 09:39:11;;;;;;;13.90;12.80;;;;;;;7.99;80.67;100636.44;5051003;28;20623;-73
2020/12/17 09:41:36;;;;;;;12.87;11.93;;;;;;;8.02;80.38;100626.88;5049596;28;20183;-76
2020/12/17 09:44:03;;;;;;;13.10;12.00;;;;;;;8.09;79.89;100630.03;5051091;28;20189;-74
2020/12/17 09:46:45;;;;;;;14.00;12.90;;;;;;;7.98;80.25;100640.25;5050834;28;20179;-74
2020/12/17 09:49:32;;;;;;;13.63;12.37;;;;;;;8.08;80.03;100628.44;5050968;28;20190;-76
2020/12/17 09:52:02;;;;;;;14.00;12.83;;;;;;;8.10;80.23;100620.81;5050860;28;20176;-80
2020/12/17 09:54:27;;;;;;;14.27;13.07;;;;;;;8.04;80.15;100614.59;5050759;28;20209;-74
2020/12/17 09:57:19;;;;;;;13.03;12.03;;;;;;;8.07;80.47;100619.44;5050546;28;20179;-75
2020/12/17 09:59:45;;;;;;;13.23;12.23;;;;;;;8.16;80.15;100633.25;5047600;28;20194;-75
2020/12/17 10:02:14;;;;;;;13.40;12.30;;;;;;;8.14;80.74;100635.44;5050810;28;20254;-74
2020/12/17 10:04:41;;;;;;;9.77;8.97;;;;;;;8.27;79.35;100636.66;5050724;28;20218;-75
2020/12/17 10:07:09;;;;;;;13.57;12.27;;;;;;;8.23;80.49;100644.56;5050085;28;20626;-73
2020/12/17 10:09:35;;;;;;;10.50;9.70;;;;;;;8.31;79.30;100645.84;5050438;28;20181;-74
2020/12/17 10:12:00;;;;;;;13.17;12.00;;;;;;;8.31;79.99;100637.69;5050780;28;20606;-73
2020/12/17 10:14:27;;;;;;;8.87;7.93;;;;;;;8.32;80.27;100651.00;5050441;28;20306;-73
2020/12/17 10:17:00;;;;;;;13.90;12.70;;;;;;;8.40;80.37;100659.66;5050401;28;20650;-74
2020/12/17 10:19:29;;;;;;;11.67;10.77;;;;;;;8.40;79.86;100651.50;5050387;28;20209;-74
2020/12/17 10:21:56;;;;;;;11.40;10.40;;;;;;;8.42;79.51;100649.31;5050323;28;20535;-74
2020/12/17 10:24:22;;;;;;;11.17;10.17;;;;;;;8.39;80.12;100653.41;5050423;28;20170;-73
2020/12/17 10:26:48;;;;;;;6.17;5.63;;;;;;;8.39;80.10;100656.13;5050174;28;20171;-74
2020/12/17 10:29:13;;;;;;;12.40;11.50;;;;;;;8.36;80.47;100651.25;5050127;28;20189;-76
2020/12/17 10:31:38;;;;;;;12.47;11.37;;;;;;;8.35;80.83;100658.63;5050100;28;20224;-75
2020/12/17 10:34:06;;;;;;;14.53;13.33;;;;;;;8.31;80.59;100649.38;5050162;28;20227;-76
2020/12/17 10:36:36;;;;;;;10.17;9.23;;;;;;;8.33;80.55;100659.97;5049298;28;20171;-75
2020/12/17 10:39:01;;;;;;;11.53;10.57;;;;;;;8.34;81.36;100659.72;5049413;28;20182;-75
2020/12/17 10:41:27;;;;;;;5.83;5.33;;;;;;;8.35;80.67;100663.25;5050288;28;20175;-74
2020/12/17 10:43:53;;;;;;;12.87;11.87;;;;;;;8.34;81.03;100665.16;5050118;28;20182;-76
2020/12/17 10:46:19;;;;;;;13.80;12.70;;;;;;;8.33;82.39;100676.31;5050092;28;20389;-77
2020/12/17 10:48:45;;;;;;;11.63;10.57;;;;;;;8.35;81.65;100672.22;5049788;28;20190;-76
2020/12/17 10:51:15;;;;;;;8.60;5.47;;;;;;;8.39;81.80;100682.53;5048794;28;20268;-75
2020/12/17 10:53:44;;;;;;;12.63;11.60;;;;;;;8.36;82.52;100675.75;5050025;28;20199;-76
2020/12/17 10:56:10;;;;;;;13.17;12.10;;;;;;;8.40;83.10;100670.56;5049996;28;20179;-77
2020/12/17 10:58:37;;;;;;;6.63;6.07;;;;;;;8.39;82.60;100682.53;5050333;28;20274;-76
2020/12/17 11:01:03;;;;;;;11.73;8.87;;;;;;;8.30;83.31;100691.31;5050022;28;20179;-75
2020/12/17 11:03:29;;;;;;;14.03;12.93;;;;;;;8.27;84.04;100685.66;5049573;28;20624;-76
2020/12/17 11:05:56;;;;;;;18.33;16.57;;;;;;;8.25;84.26;100693.31;5049984;28;20309;-76
2020/12/17 11:08:22;;;;;;;13.07;11.90;;;;;;;8.32;83.77;100696.47;5048827;28;20549;-76
2020/12/17 11:10:48;;;;;;;13.27;12.30;;;;;;;8.39;84.32;100688.81;5047985;28;20699;-76
2020/12/17 11:13:14;;;;;;;10.87;9.87;;;;;;;8.38;84.02;100700.78;5049184;28;20337;-75
2020/12/17 11:15:40;;;;;;;13.53;12.53;;;;;;;8.35;84.07;100691.28;5049046;28;20266;-76
2020/12/17 11:18:06;;;;;;;12.43;11.43;;;;;;;8.33;84.45;100693.47;5049723;28;20309;-77
2020/12/17 11:20:31;;;;;;;11.73;10.73;;;;;;;8.34;84.17;100697.81;5052218;28;20193;-76